Time;durP1;ratioP1;P1;durP2;ratioP2;P2;SDS_P1;SDS_P2;PMS_P1;PMS_P2;Temp;Humidity;BMP_temperature;BMP_pressure;BME280_temperature;BME280_humidity;BME280_pressure;Samples;Min_cycle;Max_cycle;Signal;HPM_P1;HPM_P2
2022/10/11 00:02:01;;;;;;;7.10;4.33;;;;;;;6.06;74.70;100577.69;1770661;80;21541;-76
2022/10/11 00:04:28;;;;;;;8.55;4.58;;;;;;;6.00;74.85;100568.45;1774239;80;21030;-77
2022/10/11 00:06:54;;;;;;;5.87;4.15;;;;;;;5.96;75.00;100567.50;1774402;80;21577;-77
2022/10/11 00:09:21;;;;;;;6.60;4.22;;;;;;;5.91;75.15;100569.98;1774789;80;21093;-78
2022/10/11 00:11:48;;;;;;;6.30;4.20;;;;;;;5.96;75.17;100565.69;1774177;80;21117;-77
2022/10/11 00:14:16;;;;;;;6.45;4.30;;;;;;;6.11;74.90;100565.00;1775534;80;21038;-77
2022/10/11 00:16:43;;;;;;;8.53;4.78;;;;;;;6.14;74.92;100562.59;1776023;80;21467;-78
2022/10/11 00:19:10;;;;;;;9.13;4.30;;;;;;;6.09;75.02;100561.16;1739770;82;21027;-77
2022/10/11 00:21:37;;;;;;;9.23;4.55;;;;;;;6.02;75.10;100558.63;1763616;80;21078;-77
2022/10/11 00:24:04;;;;;;;8.75;4.30;;;;;;;5.99;75.16;100553.60;1759602;81;21113;-79
2022/10/11 00:26:32;;;;;;;7.67;5.17;;;;;;;5.96;75.25;100552.51;1759258;81;21043;-77
2022/10/11 00:28:59;;;;;;;7.70;5.05;;;;;;;5.91;75.30;100551.52;1758993;81;21566;-76
2022/10/11 00:31:25;;;;;;;6.95;4.28;;;;;;;5.86;75.41;100552.83;1758932;81;21042;-77
2022/10/11 00:33:53;;;;;;;7.22;4.25;;;;;;;5.87;75.45;100548.77;1770135;80;21041;-77
2022/10/11 00:36:20;;;;;;;9.75;4.90;;;;;;;5.99;75.27;100552.73;1774236;80;21765;-76
2022/10/11 00:38:47;;;;;;;6.05;4.33;;;;;;;5.97;75.34;100549.38;1773969;80;21026;-77
2022/10/11 00:41:14;;;;;;;9.50;5.25;;;;;;;5.90;75.55;100543.72;1774471;80;21026;-77
2022/10/11 00:43:41;;;;;;;7.17;4.35;;;;;;;5.83;75.74;100546.01;1774327;80;21002;-76
2022/10/11 00:46:21;;;;;;;8.70;4.45;;;;;;;5.77;75.97;100546.94;1774245;80;21022;-77
2022/10/11 00:49:23;;;;;;;6.22;4.40;;;;;;;5.70;76.18;100542.14;1773230;80;21939;-77
2022/10/11 00:51:54;;;;;;;7.33;4.33;;;;;;;5.65;76.43;100543.44;1747519;82;21049;-76
2022/10/11 00:54:24;;;;;;;9.00;4.22;;;;;;;5.56;76.65;100539.70;1747192;82;22246;-76
2022/10/11 00:56:55;;;;;;;9.70;4.37;;;;;;;5.59;76.66;100538.64;1758118;80;21466;-77
2022/10/11 00:59:28;;;;;;;8.18;4.92;;;;;;;5.71;76.44;100543.80;1776185;80;21049;-77
2022/10/11 01:01:55;;;;;;;7.65;4.25;;;;;;;5.69;76.54;100546.20;1780591;80;21233;-77
2022/10/11 01:04:21;;;;;;;7.17;4.47;;;;;;;5.65;76.82;100540.81;1779920;80;21002;-78
2022/10/11 01:06:50;;;;;;;6.15;4.12;;;;;;;5.59;76.96;100540.80;1779991;80;21537;-77
2022/10/11 01:09:17;;;;;;;7.45;4.42;;;;;;;5.55;77.10;100539.84;1780245;80;21030;-78
2022/10/11 01:11:45;;;;;;;6.75;4.15;;;;;;;5.47;77.23;100541.25;1782677;80;21049;-76
2022/10/11 01:14:34;;;;;;;8.18;4.05;;;;;;;5.45;77.42;100539.70;1781626;80;21053;-79
2022/10/11 01:17:24;;;;;;;7.70;4.20;;;;;;;5.42;77.56;100541.23;1780432;80;21050;-77
2022/10/11 01:20:12;;;;;;;5.55;3.80;;;;;;;5.46;77.63;100540.88;1780118;80;21061;-78
2022/10/11 01:23:21;;;;;;;7.33;4.58;;;;;;;5.58;77.51;100543.09;1779340;80;21049;-76
2022/10/11 01:26:29;;;;;;;7.33;4.15;;;;;;;5.58;77.92;100546.17;1780004;80;21017;-78
2022/10/11 01:29:22;;;;;;;8.78;5.45;;;;;;;5.50;78.19;100540.16;1779913;80;21096;-78
2022/10/11 01:31:57;;;;;;;11.83;7.22;;;;;;;5.46;78.40;100540.88;1779531;80;21517;-76
2022/10/11 01:34:31;;;;;;;14.15;8.13;;;;;;;5.42;78.40;100545.18;1753336;80;21038;-76
2022/10/11 01:37:17;;;;;;;12.82;7.55;;;;;;;5.35;78.51;100547.45;1779997;80;21026;-77
2022/10/11 01:40:00;;;;;;;18.42;11.05;;;;;;;5.41;78.31;100551.39;1780499;80;20999;-77
2022/10/11 01:42:27;;;;;;;19.20;10.50;;;;;;;5.38;78.24;100552.95;1780214;80;21134;-77
2022/10/11 01:44:54;;;;;;;22.32;13.10;;;;;;;5.25;78.47;100554.34;1780244;80;20995;-78
2022/10/11 01:47:22;;;;;;;25.77;13.30;;;;;;;5.13;78.82;100555.60;1780157;80;21038;-76
2022/10/11 01:49:57;;;;;;;22.00;11.93;;;;;;;5.01;79.03;100551.73;1779910;80;21459;-79
2022/10/11 01:52:26;;;;;;;16.20;9.53;;;;;;;4.98;79.15;100554.09;1780192;80;21021;-76
2022/10/11 01:55:05;;;;;;;16.45;9.73;;;;;;;5.06;79.06;100553.53;1779889;80;21232;-76
2022/10/11 01:57:57;;;;;;;15.32;10.03;;;;;;;5.00;79.26;100563.20;1779947;80;21038;-77
2022/10/11 02:00:27;;;;;;;19.82;10.82;;;;;;;4.91;79.62;100560.30;1780065;80;21053;-78
2022/10/11 02:03:10;;;;;;;21.25;13.03;;;;;;;4.76;79.94;100550.05;1782003;80;20995;-77
2022/10/11 02:06:26;;;;;;;22.77;13.78;;;;;;;4.70;80.12;100560.05;1783365;80;21022;-75
2022/10/11 02:09:23;;;;;;;22.60;14.07;;;;;;;4.77;80.14;100556.52;1781365;80;21069;-79
2022/10/11 02:11:49;;;;;;;17.82;11.50;;;;;;;4.76;80.22;100561.41;1701208;80;21045;-78
2022/10/11 02:14:25;;;;;;;15.65;9.95;;;;;;;4.67;80.59;100560.75;1780112;80;20970;-77
2022/10/11 02:17:03;;;;;;;18.07;11.35;;;;;;;4.62;80.83;100560.25;1780375;80;20998;-76
2022/10/11 02:19:37;;;;;;;17.70;11.05;;;;;;;4.59;80.93;100553.88;1780205;80;21600;-78
2022/10/11 02:22:29;;;;;;;16.20;10.00;;;;;;;4.67;80.80;100552.36;1778916;80;21817;-76
2022/10/11 02:24:57;;;;;;;13.93;8.03;;;;;;;4.83;80.44;100557.84;1779873;80;21077;-78
2022/10/11 02:27:26;;;;;;;9.90;5.95;;;;;;;4.82;80.41;100549.11;1779927;80;21081;-77
2022/10/11 02:29:53;;;;;;;11.75;6.30;;;;;;;4.78;80.47;100552.92;1780108;80;21024;-76
2022/10/11 02:32:22;;;;;;;9.05;5.70;;;;;;;4.76;80.48;100549.56;1779863;80;20987;-78
2022/10/11 02:34:53;;;;;;;9.75;4.65;;;;;;;4.75;80.42;100557.08;1779805;80;21137;-76
2022/10/11 02:37:42;;;;;;;6.12;4.20;;;;;;;4.75;80.41;100557.56;1779986;80;21069;-78
2022/10/11 02:40:26;;;;;;;7.67;4.40;;;;;;;4.81;80.31;100557.98;1712151;82;21006;-78
2022/10/11 02:43:00;;;;;;;8.63;4.83;;;;;;;4.94;79.98;100556.59;1762619;81;21022;-77
2022/10/11 02:45:34;;;;;;;6.95;4.75;;;;;;;4.90;79.99;100562.55;1761976;81;20983;-76
2022/10/11 02:48:01;;;;;;;6.47;4.30;;;;;;;4.83;80.08;100553.44;1762271;81;21554;-77
2022/10/11 02:50:28;;;;;;;12.40;4.95;;;;;;;4.77;80.15;100560.47;1762154;81;21030;-77
2022/10/11 02:52:54;;;;;;;5.50;3.95;;;;;;;4.72;80.21;100558.63;1747387;80;21513;-76
2022/10/11 02:55:21;;;;;;;7.75;3.67;;;;;;;4.78;80.19;100556.04;1781642;80;21002;-76
2022/10/11 02:57:47;;;;;;;8.10;4.28;;;;;;;4.89;79.89;100555.63;1784006;80;21015;-77
2022/10/11 03:00:14;;;;;;;9.30;4.58;;;;;;;4.89;79.92;100555.63;1783203;80;21518;-76
2022/10/11 03:02:42;;;;;;;7.10;4.47;;;;;;;4.87;79.99;100555.37;1782751;80;21167;-76
2022/10/11 03:05:08;;;;;;;7.10;4.90;;;;;;;4.85;80.01;100552.02;1782519;80;21489;-78
2022/10/11 03:07:35;;;;;;;8.08;4.45;;;;;;;4.85;79.98;100552.02;1782320;80;21065;-77
2022/10/11 03:10:03;;;;;;;7.45;4.45;;;;;;;4.84;79.90;100556.42;1782292;80;20999;-77
2022/10/11 03:12:30;;;;;;;8.38;4.15;;;;;;;4.82;79.94;100556.18;1782270;80;21122;-76
2022/10/11 03:14:58;;;;;;;8.38;3.80;;;;;;;4.88;79.77;100555.24;1782272;80;20987;-77
2022/10/11 03:17:26;;;;;;;5.40;3.58;;;;;;;5.01;79.47;100554.37;1782515;80;21041;-78
2022/10/11 03:19:53;;;;;;;7.90;4.15;;;;;;;4.99;79.47;100552.33;1782408;80;20994;-77
2022/10/11 03:22:20;;;;;;;5.58;3.77;;;;;;;4.93;79.62;100554.44;1776561;80;21046;-78
2022/10/11 03:24:46;;;;;;;6.62;3.83;;;;;;;4.91;79.72;100552.88;1769956;81;21475;-77
2022/10/11 03:27:14;;;;;;;7.33;3.75;;;;;;;4.85;79.79;100549.39;1768684;81;21065;-77
2022/10/11 03:29:41;;;;;;;8.08;4.47;;;;;;;4.80;79.83;100555.45;1770391;81;21018;-76
2022/10/11 03:32:07;;;;;;;8.75;4.65;;;;;;;4.83;79.77;100549.49;1770316;81;21042;-77
2022/10/11 03:34:35;;;;;;;7.80;4.90;;;;;;;4.93;79.59;100549.66;1769816;81;21211;-76
2022/10/11 03:37:01;;;;;;;11.45;6.95;;;;;;;4.85;79.64;100551.53;1769664;81;21143;-76
2022/10/11 03:39:28;;;;;;;9.30;6.17;;;;;;;4.77;79.74;100549.94;1769530;81;20986;-78
2022/10/11 03:41:54;;;;;;;11.28;6.85;;;;;;;4.68;79.96;100549.28;1769603;81;21013;-79
2022/10/11 03:44:21;;;;;;;9.75;6.10;;;;;;;4.61;80.12;100549.34;1769848;81;21602;-77
2022/10/11 03:46:48;;;;;;;11.70;6.08;;;;;;;4.57;80.29;100554.47;1769876;81;21042;-77
2022/10/11 03:49:14;;;;;;;10.00;5.55;;;;;;;4.63;80.18;100546.95;1773623;80;21147;-78
2022/10/11 03:51:41;;;;;;;9.68;5.80;;;;;;;4.76;79.93;100549.56;1785414;80;21007;-76
2022/10/11 03:54:07;;;;;;;8.75;5.28;;;;;;;4.72;79.99;100545.47;1782893;80;21085;-77
2022/10/11 03:56:35;;;;;;;9.43;5.65;;;;;;;4.63;80.12;100546.13;1782751;79;21009;-77
2022/10/11 03:59:01;;;;;;;8.90;5.78;;;;;;;4.53;80.23;100544.15;1782604;80;20998;-77
2022/10/11 04:01:27;;;;;;;9.18;5.10;;;;;;;4.48;80.33;100548.92;1776015;80;21174;-77
2022/10/11 04:03:56;;;;;;;9.53;5.12;;;;;;;4.42;80.45;100555.91;1774257;80;20999;-78
2022/10/11 04:06:23;;;;;;;6.72;4.42;;;;;;;4.48;80.45;100553.31;1774518;80;21002;-78
2022/10/11 04:08:49;;;;;;;9.48;4.33;;;;;;;4.58;80.23;100553.50;1774260;80;21018;-76
2022/10/11 04:11:15;;;;;;;8.35;4.85;;;;;;;4.56;80.35;100551.00;1774463;80;21081;-79
2022/10/11 04:13:42;;;;;;;7.78;4.97;;;;;;;4.50;80.50;100561.48;1774160;80;21262;-77
2022/10/11 04:16:09;;;;;;;7.08;4.80;;;;;;;4.45;80.64;100562.28;1774146;80;21078;-78
2022/10/11 04:18:36;;;;;;;6.42;4.12;;;;;;;4.40;80.71;100563.07;1774151;80;20998;-77
2022/10/11 04:21:03;;;;;;;8.30;4.15;;;;;;;4.36;80.87;100566.03;1766557;80;22273;-78
2022/10/11 04:23:31;;;;;;;5.90;4.12;;;;;;;4.46;80.75;100567.06;1774249;80;21046;-78
2022/10/11 04:25:57;;;;;;;7.62;4.47;;;;;;;4.51;80.72;100573.68;1737259;82;21291;-77
2022/10/11 04:28:24;;;;;;;6.97;4.65;;;;;;;4.44;80.82;100568.95;1774096;80;21051;-77
2022/10/11 04:30:51;;;;;;;7.53;5.10;;;;;;;4.36;81.10;100568.19;1774139;80;20990;-77
2022/10/11 04:33:17;;;;;;;7.90;4.90;;;;;;;4.31;81.31;100573.78;1774532;80;21026;-79
2022/10/11 04:35:45;;;;;;;10.38;5.03;;;;;;;4.26;81.44;100575.05;1774357;80;21014;-78
2022/10/11 04:38:12;;;;;;;6.00;3.83;;;;;;;4.33;81.38;100573.20;1774591;80;21767;-79
2022/10/11 04:40:39;;;;;;;6.50;4.25;;;;;;;4.46;81.24;100578.45;1738866;82;20964;-77
2022/10/11 04:43:05;;;;;;;6.97;4.70;;;;;;;4.46;81.34;100577.58;1778052;80;21034;-77
2022/10/11 04:45:32;;;;;;;11.85;4.22;;;;;;;4.43;81.45;100580.45;1776839;80;21033;-78
2022/10/11 04:47:59;;;;;;;15.20;4.72;;;;;;;4.40;81.51;100582.80;1775244;80;21053;-78
2022/10/11 04:50:26;;;;;;;6.80;3.72;;;;;;;4.37;81.67;100582.20;1774303;80;21150;-78
2022/10/11 04:52:54;;;;;;;4.87;3.47;;;;;;;4.45;81.53;100581.19;1773771;80;20971;-78
2022/10/11 04:55:20;;;;;;;6.47;4.30;;;;;;;4.59;81.30;100582.34;1774397;80;21478;-77
2022/10/11 04:57:47;;;;;;;7.87;4.17;;;;;;;4.60;81.29;100580.09;1774038;80;21070;-79
2022/10/11 05:00:14;;;;;;;7.40;4.60;;;;;;;4.59;81.32;100581.52;1774160;80;21510;-78
2022/10/11 05:02:41;;;;;;;7.55;4.60;;;;;;;4.58;81.34;100578.50;1774361;80;21546;-78
2022/10/11 05:05:08;;;;;;;10.48;4.78;;;;;;;4.58;81.32;100579.37;1774146;80;21537;-78
2022/10/11 05:07:36;;;;;;;6.42;4.08;;;;;;;4.60;81.29;100579.27;1774632;80;20986;-77
2022/10/11 05:10:03;;;;;;;8.83;4.87;;;;;;;4.77;81.01;100575.41;1774627;80;21093;-76
2022/10/11 05:12:31;;;;;;;6.95;4.55;;;;;;;4.91;80.67;100571.31;1774177;80;21588;-77
2022/10/11 05:14:58;;;;;;;7.92;4.42;;;;;;;4.96;80.62;100577.06;1774210;80;21525;-77
2022/10/11 05:17:25;;;;;;;14.73;5.42;;;;;;;5.00;80.57;100573.25;1774249;80;21030;-79
2022/10/11 05:19:51;;;;;;;6.90;4.83;;;;;;;5.04;80.46;100576.52;1774049;80;21070;-78
2022/10/11 05:22:18;;;;;;;7.22;4.67;;;;;;;5.09;80.35;100580.98;1774522;80;21162;-78
2022/10/11 05:24:44;;;;;;;8.85;4.60;;;;;;;5.19;80.11;100579.34;1774873;80;21061;-75
2022/10/11 05:27:10;;;;;;;11.65;5.60;;;;;;;5.37;79.68;100578.48;1774239;80;21211;-78
2022/10/11 05:29:38;;;;;;;9.08;4.53;;;;;;;5.41;79.57;100574.66;1774213;80;21451;-77
2022/10/11 05:32:05;;;;;;;6.95;4.10;;;;;;;5.45;79.50;100570.83;1774553;80;21068;-77
2022/10/11 05:34:32;;;;;;;9.10;4.78;;;;;;;5.51;79.38;100565.58;1778050;80;21403;-78
2022/10/11 05:36:59;;;;;;;11.12;4.40;;;;;;;5.56;79.22;100569.17;1776962;80;20974;-77
2022/10/11 05:39:25;;;;;;;7.33;4.45;;;;;;;5.62;79.04;100568.25;1775773;80;21207;-78
2022/10/11 05:41:53;;;;;;;9.55;4.60;;;;;;;5.81;78.59;100570.30;1774681;80;21049;-77
2022/10/11 05:44:19;;;;;;;5.30;3.92;;;;;;;5.99;78.23;100566.79;1774436;80;21087;-78
2022/10/11 05:46:46;;;;;;;5.10;3.40;;;;;;;6.05;77.96;100567.62;1774322;80;21498;-79
2022/10/11 05:49:13;;;;;;;6.30;3.98;;;;;;;6.15;77.90;100565.61;1774129;80;21013;-77
2022/10/11 05:51:40;;;;;;;9.35;4.53;;;;;;;6.28;77.57;100568.97;1774180;80;21075;-78
2022/10/11 05:54:06;;;;;;;7.08;4.40;;;;;;;6.41;77.27;100567.05;1743724;80;21084;-78
2022/10/11 05:56:33;;;;;;;6.20;4.47;;;;;;;6.56;76.95;100569.42;1741921;82;21043;-78
2022/10/11 05:58:59;;;;;;;6.58;4.60;;;;;;;6.68;76.37;100569.30;1742167;82;21103;-77
2022/10/11 06:01:26;;;;;;;10.50;4.17;;;;;;;6.77;75.92;100566.37;1742038;82;21067;-75
2022/10/11 06:03:53;;;;;;;11.35;4.60;;;;;;;6.92;75.31;100570.08;1741803;82;21115;-78
2022/10/11 06:06:19;;;;;;;12.93;4.00;;;;;;;7.17;75.15;100572.89;1741833;82;21051;-78
2022/10/11 06:08:46;;;;;;;7.55;3.90;;;;;;;7.35;74.87;100567.88;1741915;81;21115;-77
2022/10/11 06:11:16;;;;;;;10.88;3.40;;;;;;;7.54;74.47;100564.55;1741879;82;21059;-78
2022/10/11 06:13:43;;;;;;;5.70;3.50;;;;;;;7.74;73.93;100568.16;1742159;81;21019;-77
2022/10/11 06:16:10;;;;;;;10.05;4.37;;;;;;;7.92;73.47;100565.28;1741865;82;21229;-79
2022/10/11 06:18:36;;;;;;;4.83;3.30;;;;;;;8.10;72.87;100569.97;1744338;80;21045;-78
2022/10/11 06:21:03;;;;;;;7.17;3.95;;;;;;;8.23;72.18;100569.27;1764062;81;21023;-76
2022/10/11 06:23:30;;;;;;;7.95;3.52;;;;;;;8.37;71.76;100570.71;1764634;81;20983;-77
2022/10/11 06:26:04;;;;;;;7.53;3.60;;;;;;;8.45;71.25;100566.44;1766830;81;21038;-77
2022/10/11 06:28:33;;;;;;;8.93;5.08;;;;;;;8.64;70.81;100571.46;1767535;81;21281;-76
2022/10/11 06:30:59;;;;;;;4.37;3.12;;;;;;;8.78;70.34;100569.73;1764952;81;21502;-78
2022/10/11 06:33:26;;;;;;;6.00;3.42;;;;;;;8.89;69.81;100569.30;1764505;81;21470;-79
2022/10/11 06:36:02;;;;;;;7.20;4.17;;;;;;;9.00;69.23;100568.68;1764181;81;21538;-77
2022/10/11 06:38:29;;;;;;;6.30;3.65;;;;;;;9.11;68.68;100565.54;1764463;81;21501;-78
2022/10/11 06:40:56;;;;;;;7.17;4.12;;;;;;;9.21;68.27;100563.26;1764552;81;21479;-78
2022/10/11 06:43:24;;;;;;;5.85;3.92;;;;;;;9.31;68.11;100561.94;1764357;81;21022;-78
2022/10/11 06:45:50;;;;;;;7.58;3.83;;;;;;;9.41;67.93;100563.25;1764636;81;21507;-78
2022/10/11 06:48:16;;;;;;;5.37;3.30;;;;;;;9.52;67.72;100562.25;1764748;80;20986;-77
2022/10/11 06:50:43;;;;;;;6.75;4.08;;;;;;;9.61;67.33;100557.43;1743873;82;21245;-78
2022/10/11 06:53:10;;;;;;;4.92;3.12;;;;;;;9.72;67.05;100561.25;1743740;82;21084;-78
2022/10/11 06:55:36;;;;;;;5.80;3.70;;;;;;;9.81;66.79;100556.42;1743391;82;21585;-76
2022/10/11 06:58:03;;;;;;;6.00;3.87;;;;;;;9.90;66.36;100556.04;1743437;81;21115;-79
2022/10/11 07:00:29;;;;;;;6.70;4.30;;;;;;;10.01;65.80;100557.70;1743684;82;21034;-79
2022/10/11 07:02:56;;;;;;;6.05;3.75;;;;;;;10.09;65.50;100560.95;1743381;82;21174;-78
2022/10/11 07:05:22;;;;;;;6.72;3.55;;;;;;;10.14;65.42;100557.36;1766071;80;21551;-78
2022/10/11 07:07:49;;;;;;;5.80;3.00;;;;;;;10.16;64.78;100558.05;1774032;80;21081;-77
2022/10/11 07:10:16;;;;;;;3.77;2.80;;;;;;;10.20;65.03;100562.11;1774092;80;21029;-79
2022/10/11 07:12:43;;;;;;;6.47;3.20;;;;;;;10.30;64.25;100562.94;1774533;80;20999;-78
2022/10/11 07:16:48;;;;;;;6.60;3.08;;;;;;;10.49;63.94;100558.02;1870628;76;28090;-77
2022/10/11 07:19:15;;;;;;;3.85;2.80;;;;;;;10.56;63.95;100563.58;1828934;77;20966;-78
2022/10/11 07:21:42;;;;;;;5.15;2.98;;;;;;;10.67;63.41;100558.06;1829656;78;21021;-78
2022/10/11 07:24:08;;;;;;;3.67;2.67;;;;;;;10.79;63.00;100556.03;1826562;78;20975;-78
2022/10/11 07:26:35;;;;;;;6.75;3.10;;;;;;;10.88;62.92;100557.80;1826641;78;20997;-80
2022/10/11 07:29:01;;;;;;;6.78;3.37;;;;;;;10.96;62.08;100554.39;1826710;78;21497;-78
2022/10/11 07:31:29;;;;;;;3.33;2.55;;;;;;;11.00;62.26;100549.94;1826567;78;21017;-79
2022/10/11 07:33:55;;;;;;;3.15;2.50;;;;;;;11.09;62.08;100549.53;1830382;77;21687;-79
2022/10/11 07:36:22;;;;;;;3.75;2.70;;;;;;;11.18;61.66;100549.95;1846871;77;20960;-78
2022/10/11 07:38:49;;;;;;;4.40;2.83;;;;;;;11.30;61.63;100547.04;1846604;77;20969;-79
2022/10/11 07:41:15;;;;;;;9.60;3.22;;;;;;;11.43;61.38;100540.84;1816333;77;21012;-79
2022/10/11 07:43:42;;;;;;;4.87;2.85;;;;;;;11.58;60.59;100537.13;1846234;77;21052;-77
2022/10/11 07:46:10;;;;;;;4.75;3.00;;;;;;;11.73;60.22;100532.92;1846409;77;21085;-77
2022/10/11 07:48:37;;;;;;;4.08;2.60;;;;;;;11.87;59.62;100528.84;1846284;77;21056;-78
2022/10/11 07:51:16;;;;;;;4.03;2.20;;;;;;;11.98;59.40;100529.94;1846863;77;21180;-78
2022/10/11 07:53:45;;;;;;;2.40;2.20;;;;;;;12.08;58.75;100520.50;1847043;77;20997;-80
2022/10/11 07:56:14;;;;;;;4.10;2.05;;;;;;;12.21;58.36;100521.41;1846779;77;21121;-77
2022/10/11 07:58:42;;;;;;;4.60;1.85;;;;;;;12.35;58.22;100518.13;1846443;77;21228;-77
2022/10/11 08:01:09;;;;;;;2.92;1.62;;;;;;;12.52;57.73;100524.86;1846302;77;20977;-77
2022/10/11 08:03:37;;;;;;;5.03;2.10;;;;;;;12.66;56.68;100518.89;1846322;77;21009;-78
2022/10/11 08:06:06;;;;;;;3.25;2.12;;;;;;;12.75;56.44;100513.92;1844682;77;21011;-78
2022/10/11 08:08:33;;;;;;;1.57;1.20;;;;;;;12.84;55.42;100518.75;1795820;80;21033;-77
2022/10/11 08:11:01;;;;;;;1.50;1.35;;;;;;;12.96;54.98;100516.60;1797252;79;21621;-75
2022/10/11 08:13:27;;;;;;;1.62;0.98;;;;;;;13.09;54.45;100516.95;1797807;80;20939;-76
2022/10/11 08:15:54;;;;;;;1.15;1.05;;;;;;;13.24;54.01;100513.64;1789162;80;20978;-78
2022/10/11 08:18:22;;;;;;;1.72;1.30;;;;;;;13.37;53.73;100516.17;1783151;79;20994;-77
2022/10/11 08:20:48;;;;;;;2.25;1.55;;;;;;;13.51;53.64;100520.50;1783124;80;21053;-77
2022/10/11 08:23:16;;;;;;;2.62;1.67;;;;;;;13.67;53.71;100515.13;1783009;79;21212;-76
2022/10/11 08:25:44;;;;;;;2.47;1.60;;;;;;;13.85;53.31;100512.75;1783597;79;20995;-78
2022/10/11 08:28:15;;;;;;;3.62;1.87;;;;;;;14.06;52.70;100512.20;1782619;80;21025;-78
2022/10/11 08:30:49;;;;;;;1.35;1.25;;;;;;;14.29;52.24;100521.16;1782603;79;21037;-76
2022/10/11 08:33:17;;;;;;;1.98;1.35;;;;;;;14.50;51.05;100519.20;1784127;78;21111;-78
2022/10/11 08:35:44;;;;;;;2.12;1.90;;;;;;;14.67;50.45;100513.81;1833667;78;21121;-78
2022/10/11 08:38:11;;;;;;;3.60;1.90;;;;;;;14.85;50.39;100516.20;1834228;78;21072;-77
2022/10/11 08:40:37;;;;;;;2.25;1.70;;;;;;;15.07;49.48;100506.53;1834359;78;21005;-77
2022/10/11 08:43:07;;;;;;;3.55;1.70;;;;;;;15.26;49.36;100506.05;1834193;78;21024;-79
2022/10/11 08:45:47;;;;;;;4.58;1.60;;;;;;;15.40;49.34;100500.91;1834907;78;21013;-79
2022/10/11 08:48:35;;;;;;;3.30;1.90;;;;;;;15.61;48.45;100505.58;1834342;78;21100;-78
2022/10/11 08:51:07;;;;;;;2.87;1.90;;;;;;;15.72;48.24;100501.94;1834177;78;20977;-77
2022/10/11 08:54:06;;;;;;;3.12;1.62;;;;;;;15.92;48.52;100497.41;1834387;78;21013;-78
2022/10/11 08:56:35;;;;;;;3.20;1.80;;;;;;;16.25;48.35;100499.70;1758249;80;21091;-79
2022/10/11 08:59:15;;;;;;;3.00;2.15;;;;;;;16.80;47.67;100493.41;1758588;81;21009;-78
2022/10/11 09:01:59;;;;;;;1.92;1.80;;;;;;;17.37;46.40;100487.16;1800618;77;21058;-78
2022/10/11 09:04:25;;;;;;;2.25;1.65;;;;;;;17.90;45.65;100491.27;1835759;78;21048;-78
2022/10/11 09:07:20;;;;;;;1.70;1.42;;;;;;;18.56;44.21;100484.01;1836037;78;20985;-79
2022/10/11 09:10:11;;;;;;;2.62;1.77;;;;;;;19.24;42.58;100483.44;1834847;78;20997;-79
2022/10/11 09:13:04;;;;;;;1.92;1.57;;;;;;;20.12;41.18;100481.45;1758810;80;21040;-78
2022/10/11 09:15:51;;;;;;;2.15;1.90;;;;;;;20.95;39.35;100476.05;1836777;77;21129;-79
2022/10/11 09:18:52;;;;;;;4.75;3.42;;;;;;;21.68;38.57;100476.00;1845924;77;20973;-79
2022/10/11 09:21:34;;;;;;;5.75;3.72;;;;;;;22.41;38.08;100474.87;1845937;77;21059;-79
2022/10/11 09:24:21;;;;;;;6.00;4.37;;;;;;;23.31;37.08;100478.89;1845920;77;21040;-79
2022/10/11 09:27:03;;;;;;;8.28;5.12;;;;;;;24.13;36.26;100476.66;1846275;77;21012;-79
2022/10/11 09:29:56;;;;;;;7.70;7.00;;;;;;;24.76;35.78;100468.63;1845911;77;21202;-78
2022/10/11 09:32:22;;;;;;;8.78;8.00;;;;;;;25.28;35.35;100461.68;1846674;77;21075;-78
2022/10/11 09:35:01;;;;;;;11.65;10.58;;;;;;;25.90;34.73;100464.73;1832839;77;21042;-78
2022/10/11 09:37:48;;;;;;;14.83;12.45;;;;;;;26.29;33.97;100463.33;1829007;78;21009;-79
2022/10/11 09:40:24;;;;;;;17.12;15.43;;;;;;;26.66;33.46;100456.39;1828417;78;21037;-79
2022/10/11 09:42:50;;;;;;;22.17;20.43;;;;;;;27.10;33.05;100457.60;1829085;78;21107;-79
2022/10/11 09:45:19;;;;;;;26.75;24.47;;;;;;;27.58;32.69;100454.42;1829430;78;21584;-77
2022/10/11 09:47:48;;;;;;;22.17;20.30;;;;;;;28.04;32.00;100444.27;1829201;78;20978;-78
2022/10/11 09:50:28;;;;;;;25.00;22.90;;;;;;;28.30;31.38;100450.66;1829033;78;21632;-78
2022/10/11 09:52:58;;;;;;;19.77;17.77;;;;;;;28.37;31.08;100442.19;1829445;78;21033;-77
2022/10/11 09:55:43;;;;;;;27.07;24.45;;;;;;;28.25;30.80;100446.53;1830718;78;21953;-77
2022/10/11 09:58:29;;;;;;;17.12;15.72;;;;;;;28.32;30.88;100449.00;1833028;78;21320;-78
2022/10/11 10:01:06;;;;;;;30.12;27.52;;;;;;;28.54;30.01;100440.63;1829966;78;21006;-78
2022/10/11 10:03:42;;;;;;;34.27;31.27;;;;;;;28.58;30.58;100443.89;1831051;77;21001;-78
2022/10/11 10:06:24;;;;;;;33.15;30.30;;;;;;;28.85;30.21;100445.56;1846579;77;20981;-77
2022/10/11 10:08:50;;;;;;;29.90;27.57;;;;;;;29.08;30.01;100444.20;1846570;77;21776;-77
2022/10/11 10:11:17;;;;;;;22.15;20.35;;;;;;;29.54;29.59;100439.24;1845851;77;21341;-78
2022/10/11 10:13:53;;;;;;;30.45;27.80;;;;;;;29.83;28.62;100438.64;1818167;77;21535;-79
2022/10/11 10:16:30;;;;;;;30.75;28.02;;;;;;;30.08;28.53;100439.08;1840426;77;21572;-79
2022/10/11 10:19:02;;;;;;;33.28;30.40;;;;;;;30.29;28.51;100432.38;1834136;78;21461;-77
2022/10/11 10:21:33;;;;;;;37.70;34.40;;;;;;;30.53;28.29;100428.97;1833202;77;22135;-79
2022/10/11 10:24:03;;;;;;;32.88;30.08;;;;;;;30.67;28.09;100423.65;1791970;80;21028;-77
2022/10/11 10:26:30;;;;;;;32.28;29.40;;;;;;;30.72;27.93;100424.99;1778360;80;21018;-79
2022/10/11 10:29:02;;;;;;;29.37;26.97;;;;;;;30.84;27.74;100428.17;1778171;80;21006;-78
2022/10/11 10:31:38;;;;;;;30.08;27.67;;;;;;;30.74;27.54;100423.59;1834777;77;20998;-78
2022/10/11 10:34:12;;;;;;;27.00;24.77;;;;;;;30.69;27.57;100422.25;1823467;78;21143;-78
2022/10/11 10:36:41;;;;;;;25.90;23.75;;;;;;;31.03;27.48;100424.20;1790379;79;21027;-79
2022/10/11 10:39:19;;;;;;;26.20;24.20;;;;;;;31.50;27.07;100413.60;1816765;79;21002;-77
2022/10/11 10:41:45;;;;;;;28.42;25.88;;;;;;;31.91;26.72;100417.22;1814672;78;21010;-80
2022/10/11 10:44:12;;;;;;;27.65;25.23;;;;;;;32.07;26.47;100406.33;1803578;79;21014;-79
2022/10/11 10:47:18;;;;;;;24.92;23.00;;;;;;;32.12;26.15;100398.56;1814677;79;21807;-80
2022/10/11 10:50:03;;;;;;;24.85;22.73;;;;;;;32.20;26.06;100397.08;1818295;79;20963;-76
2022/10/11 10:52:47;;;;;;;23.75;21.90;;;;;;;32.48;26.05;100393.91;1817677;79;21431;-79
2022/10/11 10:55:39;;;;;;;21.17;19.32;;;;;;;32.73;25.72;100389.16;1814846;78;20994;-79
2022/10/11 10:58:48;;;;;;;19.77;18.20;;;;;;;32.77;25.44;100384.11;1814923;78;21114;-79
2022/10/11 11:01:25;;;;;;;19.30;17.82;;;;;;;32.96;25.15;100384.06;1814911;79;21126;-78
2022/10/11 11:04:07;;;;;;;20.32;18.62;;;;;;;33.10;24.76;100382.73;1825231;78;20978;-79
2022/10/11 11:06:53;;;;;;;19.75;18.17;;;;;;;33.24;24.71;100382.17;1834647;78;20982;-79
2022/10/11 11:09:37;;;;;;;17.82;16.07;;;;;;;33.71;24.66;100377.15;1834691;78;21036;-79
2022/10/11 11:12:32;;;;;;;19.32;17.62;;;;;;;34.01;24.07;100369.59;1836220;78;21012;-79
2022/10/11 11:15:17;;;;;;;18.35;16.95;;;;;;;34.30;24.20;100363.47;1834191;78;21469;-79
2022/10/11 11:18:15;;;;;;;17.20;15.80;;;;;;;34.71;23.95;100361.09;1834110;77;21500;-79
2022/10/11 11:21:00;;;;;;;17.07;15.58;;;;;;;34.90;23.81;100356.17;1834136;78;21105;-80
2022/10/11 11:23:47;;;;;;;18.30;16.77;;;;;;;35.09;23.68;100356.52;1834257;78;21521;-79
2022/10/11 11:26:40;;;;;;;16.75;15.20;;;;;;;35.12;23.49;100353.09;1834493;78;21021;-80
2022/10/11 11:29:27;;;;;;;14.75;13.38;;;;;;;35.15;23.42;100356.61;1834105;78;21252;-79
2022/10/11 11:32:31;;;;;;;14.65;13.50;;;;;;;35.35;23.25;100349.18;1834500;78;21057;-78
2022/10/11 11:35:04;;;;;;;12.90;11.85;;;;;;;35.56;22.99;100353.55;1810510;78;21038;-77
2022/10/11 11:37:34;;;;;;;12.93;11.93;;;;;;;35.74;22.72;100349.46;1814689;78;21065;-78
2022/10/11 11:40:18;;;;;;;12.98;11.83;;;;;;;35.70;22.59;100347.07;1775919;80;21154;-79
2022/10/11 11:42:49;;;;;;;13.22;12.13;;;;;;;35.65;22.70;100343.88;1748280;80;21548;-78
2022/10/11 11:45:24;;;;;;;12.18;11.18;;;;;;;35.74;22.62;100341.98;1777039;80;21064;-80
2022/10/11 11:48:10;;;;;;;11.38;10.38;;;;;;;35.64;22.55;100344.45;1761659;80;20997;-78
2022/10/11 11:50:39;;;;;;;11.20;10.30;;;;;;;35.35;22.48;100336.75;1767010;80;21014;-79